Archival Weather

Norman Y Mineta San Jose Intl

San Jose, California (KSJC)

Report from: Sunday, February 18, 2024 7:53 PM PST
Current time: Friday, June 21, 2024 1:42 AM PDT

Current weather – Weather history – Daily summaries
Weather forecast

Present weatherLight rain
Temperature16.1°C (61.0°F)
Dew point13.3°C (55.9°F)
Winds 7 kts (3.6 m/s, 8.1 mph) Southwest (220°)
Visibility6 mi. (9.7 km)
Clouds Few clouds 1,600 ft. (488 m)
Ceiling: Broken clouds 2,500 ft. (762 m)
Overcast 3,000 ft. (914 m)
Altimeter29.74 in.Hg (1007 mB)
Precipitiation0.04 in. (1 mm)
Relative humidity83 %
Density altitude558 ft. (170 m)
Sea-level pressure100.7 kPa (1007 mB, 29.73 in.Hg)
Remarks Automated weather observing station with precipitation discriminator
Flight conditions Marginal Visual Meteorological Conditions
Raw dataKSJC 190353Z 22007KT 6SM -RA FEW016 BKN025 OVC030 16/13 A2974 RMK AO2 SLP069 P0004 T01610133
An error has occurred. This application may no longer respond until reloaded. Reload 🗙